Susanne.pairtrawler — DETY — position and weather

sailwx.info

Track history (hours):
 
Tides and Currents Weather Stations Pressure Air Temp Water Temp Dewpoint Dewpoint Depression Visibility Wind Speed Wind Dir Waves Ship Positions

Susanne.pairtrawler

Last reported at 2016-Jun-25 19:24 UTC. Time now 2016-Jun-26 12:04 UTC.
Position N 57°31' E 007°42'.

Length 40 m; draft 5 m.

Type: Fishing. MMSI: 211227510.

Date/timePositionNaut miles runAvg speedWind from/ knotsBaromVisibWave heightAir tempDewpointWater temp
2016-Jun-25 19:24N 57°31' E 007°42'3 3.4
2016-Jun-25 18:23N 57°27' E 007°41'0 0.4
2016-Jun-25 17:33N 57°27' E 007°41'3 2.5
2016-Jun-25 16:33N 57°26' E 007°46'11 3.7
2016-Jun-25 13:30N 57°28' E 007°25'4 4.1
2016-Jun-25 12:29N 57°28' E 007°17'2 1.6
2016-Jun-25 11:24N 57°27' E 007°20'4 4.4
2016-Jun-25 10:31N 57°27' E 007°27'34 2.3
2016-Jun-24 19:31N 57°38' E 006°26'2 1.9
2016-Jun-24 18:29N 57°39' E 006°24'6 2.9
2016-Jun-24 16:29N 57°37' E 006°14'88 2.4
2016-Jun-23 04:33N 58°22' E 003°52'3 3.4
2016-Jun-23 03:33N 58°24' E 003°46'9 8.5
2016-Jun-23 02:30N 58°16' E 003°56'19 4.5
2016-Jun-22 22:23N 58°06' E 004°25'3 3.5
2016-Jun-22 21:33N 58°05' E 004°31'3 2.8
2016-Jun-22 20:32N 58°08' E 004°34'10 3.0
2016-Jun-22 17:16N 58°12' E 004°17'61 3.4
2016-Jun-21 23:23N 57°40' E 005°56'910.9
2016-Jun-21 22:33N 57°37' E 006°11'1310.7
2016-Jun-21 21:20N 57°32' E 006°34'47 9.8
2016-Jun-21 16:33N 57°21' E 007°59'24 3.3
2016-Jun-21 09:08N 57°07' E 008°36'0 0.0
2016-Jun-20 09:33N 57°07' E 008°36'0 0.0
2016-Jun-20 08:24N 57°07' E 008°36'51 1.4
2016-Jun-18 19:08N 57°26' E 007°09'110 4.1
2016-Jun-17 16:09N 58°18' E 004°06'4 4.8
2016-Jun-17 15:24N 58°20' E 004°01'  
Track history (hours):
 
Tides and Currents Weather Stations Pressure Air Temp Water Temp Dewpoint Dewpoint Depression Visibility Wind Speed Wind Dir Waves Ship Positions

Susanne.pairtrawler

Last reported at 2016-Jun-25 19:24 UTC. Time now 2016-Jun-26 12:04 UTC.
Position N 57°31' E 007°42'.

Length 40 m; draft 5 m.

Type: Fishing. MMSI: 211227510.

Date/timePositionNaut miles runAvg speedWind from/ knotsBaromVisibWave heightAir tempDewpointWater temp
2016-Jun-25 19:24N 57°31' E 007°42'3 3.4
2016-Jun-25 18:23N 57°27' E 007°41'0 0.4
2016-Jun-25 17:33N 57°27' E 007°41'3 2.5
2016-Jun-25 16:33N 57°26' E 007°46'11 3.7
2016-Jun-25 13:30N 57°28' E 007°25'4 4.1
2016-Jun-25 12:29N 57°28' E 007°17'2 1.6
2016-Jun-25 11:24N 57°27' E 007°20'4 4.4
2016-Jun-25 10:31N 57°27' E 007°27'34 2.3
2016-Jun-24 19:31N 57°38' E 006°26'2 1.9
2016-Jun-24 18:29N 57°39' E 006°24'6 2.9
2016-Jun-24 16:29N 57°37' E 006°14'88 2.4
2016-Jun-23 04:33N 58°22' E 003°52'3 3.4
2016-Jun-23 03:33N 58°24' E 003°46'9 8.5
2016-Jun-23 02:30N 58°16' E 003°56'19 4.5
2016-Jun-22 22:23N 58°06' E 004°25'3 3.5
2016-Jun-22 21:33N 58°05' E 004°31'3 2.8
2016-Jun-22 20:32N 58°08' E 004°34'10 3.0
2016-Jun-22 17:16N 58°12' E 004°17'61 3.4
2016-Jun-21 23:23N 57°40' E 005°56'910.9
2016-Jun-21 22:33N 57°37' E 006°11'1310.7
2016-Jun-21 21:20N 57°32' E 006°34'47 9.8
2016-Jun-21 16:33N 57°21' E 007°59'24 3.3
2016-Jun-21 09:08N 57°07' E 008°36'0 0.0
2016-Jun-20 09:33N 57°07' E 008°36'0 0.0
2016-Jun-20 08:24N 57°07' E 008°36'51 1.4
2016-Jun-18 19:08N 57°26' E 007°09'110 4.1
2016-Jun-17 16:09N 58°18' E 004°06'4 4.8
2016-Jun-17 15:24N 58°20' E 004°01'  

Dump ship's entire track history